Time;durP1;ratioP1;P1;durP2;ratioP2;P2;SDS_P1;SDS_P2;PMS_P1;PMS_P2;Temp;Humidity;BMP_temperature;BMP_pressure;BME280_temperature;BME280_humidity;BME280_pressure;Samples;Min_cycle;Max_cycle;Signal;HPM_P1;HPM_P2
2023/08/25 00:00:09;;;;;;;16.98;15.27;;;;;;;22.80;53.96;93951.16;4989338;28;20173;-78
2023/08/25 00:02:35;;;;;;;17.25;15.45;;;;;;;22.82;53.97;93957.00;4990206;28;20096;-79
2023/08/25 00:05:00;;;;;;;17.52;15.73;;;;;;;22.71;54.41;93946.91;4991373;28;20562;-79
2023/08/25 00:07:26;;;;;;;18.67;16.23;;;;;;;22.57;54.36;93932.59;4989717;28;20111;-78
2023/08/25 00:09:51;;;;;;;18.77;16.40;;;;;;;22.66;54.27;93947.31;4996385;28;20631;-79
2023/08/25 00:12:16;;;;;;;19.42;15.50;;;;;;;22.81;54.39;93969.78;4990125;28;20388;-77
2023/08/25 00:14:42;;;;;;;17.25;15.40;;;;;;;22.87;54.58;93976.41;4984507;28;20362;-79
2023/08/25 00:17:08;;;;;;;18.02;16.05;;;;;;;22.70;54.57;93960.84;4995480;28;20353;-77
2023/08/25 00:19:33;;;;;;;17.48;15.30;;;;;;;22.74;54.67;93961.63;4993126;28;20115;-79
2023/08/25 00:21:59;;;;;;;17.35;15.32;;;;;;;22.67;54.98;93964.34;4979883;28;20474;-77
2023/08/25 00:24:24;;;;;;;18.48;16.50;;;;;;;22.57;55.26;93951.56;4987597;28;20059;-78
2023/08/25 00:26:50;;;;;;;19.08;16.73;;;;;;;22.55;55.30;93930.25;4993849;28;20031;-78
2023/08/25 00:29:15;;;;;;;17.13;15.45;;;;;;;22.64;55.51;93960.44;4996039;28;20447;-78
2023/08/25 00:31:40;;;;;;;17.80;15.98;;;;;;;22.60;55.60;93958.91;4993453;28;20374;-78
2023/08/25 00:34:06;;;;;;;18.02;15.43;;;;;;;22.57;55.57;93957.75;4995952;28;20039;-79
2023/08/25 00:36:31;;;;;;;21.05;16.52;;;;;;;22.60;55.89;93964.31;4992472;28;20046;-77
2023/08/25 00:38:56;;;;;;;17.45;15.32;;;;;;;22.46;56.08;93942.63;4988156;28;20421;-79
2023/08/25 00:41:22;;;;;;;17.02;15.32;;;;;;;22.46;56.04;93951.53;4992598;28;20156;-79
2023/08/25 00:43:48;;;;;;;19.40;17.40;;;;;;;22.51;56.55;93966.63;4989859;28;20793;-79
2023/08/25 00:46:15;;;;;;;23.45;17.05;;;;;;;22.48;56.51;93957.34;4987890;28;20046;-79
2023/08/25 00:48:41;;;;;;;18.63;15.75;;;;;;;22.33;56.76;93927.91;4990892;28;20065;-78
2023/08/25 00:51:09;;;;;;;17.25;15.40;;;;;;;22.52;57.08;93962.78;4998449;28;20097;-78
2023/08/25 00:53:35;;;;;;;16.60;14.90;;;;;;;22.45;56.66;93952.69;4984114;28;20720;-79
2023/08/25 00:56:02;;;;;;;19.25;16.95;;;;;;;22.49;56.67;93955.38;4974925;28;20116;-78
2023/08/25 00:58:27;;;;;;;19.05;16.75;;;;;;;22.49;56.70;93963.53;5001969;28;20038;-78
2023/08/25 01:00:53;;;;;;;19.33;15.48;;;;;;;22.50;56.81;93965.84;4994317;28;20040;-78
2023/08/25 01:03:19;;;;;;;19.42;17.45;;;;;;;22.52;56.57;93970.91;4988692;28;20035;-79
2023/08/25 01:05:48;;;;;;;18.85;16.85;;;;;;;22.50;56.61;93978.63;4989025;28;20075;-79
2023/08/25 01:08:15;;;;;;;19.33;17.33;;;;;;;22.43;56.85;93970.50;4988171;28;20647;-78
2023/08/25 01:11:28;;;;;;;18.02;15.23;;;;;;;22.38;56.70;93968.16;4994507;28;20063;-79
2023/08/25 01:14:12;;;;;;;18.63;16.73;;;;;;;22.32;56.75;93962.34;4977278;28;20053;-76
2023/08/25 01:16:57;;;;;;;18.75;16.13;;;;;;;22.37;56.94;93966.63;4980672;28;20045;-79
2023/08/25 01:19:51;;;;;;;17.88;15.80;;;;;;;22.32;57.06;93964.28;4989533;28;20038;-79
2023/08/25 01:22:24;;;;;;;17.67;14.73;;;;;;;22.29;57.05;93963.88;4983019;28;20040;-79
2023/08/25 01:24:52;;;;;;;19.02;16.48;;;;;;;22.26;57.24;93964.66;4970593;28;20531;-79
2023/08/25 01:27:18;;;;;;;17.38;15.48;;;;;;;22.27;57.42;93963.50;4985121;28;20040;-78
2023/08/25 01:29:44;;;;;;;18.13;16.02;;;;;;;22.24;57.20;93956.13;4987323;28;20034;-78
2023/08/25 01:32:09;;;;;;;19.48;16.35;;;;;;;22.24;57.49;93958.81;4993942;28;20587;-78
2023/08/25 01:34:36;;;;;;;22.45;15.88;;;;;;;22.18;57.33;93946.03;4990838;28;20112;-79
2023/08/25 01:37:23;;;;;;;19.58;15.88;;;;;;;22.24;57.83;93958.81;4991283;28;20046;-78
2023/08/25 01:39:52;;;;;;;18.77;16.02;;;;;;;22.07;57.61;93932.44;4993261;28;20043;-79
2023/08/25 01:42:22;;;;;;;21.17;17.25;;;;;;;22.22;57.44;93958.44;4989183;28;20022;-79
2023/08/25 01:44:49;;;;;;;17.77;15.82;;;;;;;22.21;57.55;93958.78;4993768;28;20110;-77
2023/08/25 01:47:19;;;;;;;19.17;16.50;;;;;;;22.15;57.84;93952.97;4987203;28;20062;-77
2023/08/25 01:49:45;;;;;;;19.90;16.05;;;;;;;22.11;57.71;93938.66;4985007;28;20503;-79
2023/08/25 01:52:12;;;;;;;19.98;17.85;;;;;;;22.17;57.41;93953.38;4989424;28;20042;-79
2023/08/25 01:54:38;;;;;;;18.88;17.05;;;;;;;22.10;57.41;93947.94;4993794;28;20086;-79
2023/08/25 01:57:04;;;;;;;18.50;16.63;;;;;;;22.12;57.73;93951.03;4993766;28;20034;-77
2023/08/25 01:59:29;;;;;;;19.25;17.27;;;;;;;22.06;58.04;93947.16;4983129;28;20025;-79
2023/08/25 02:01:54;;;;;;;17.80;15.95;;;;;;;22.05;58.08;93939.41;4993437;28;20030;-78
2023/08/25 02:04:20;;;;;;;19.42;16.70;;;;;;;22.05;58.00;93942.88;4994162;28;20042;-78
2023/08/25 02:06:45;;;;;;;20.80;15.82;;;;;;;22.04;57.85;93941.34;4984351;28;20127;-78
2023/08/25 02:09:11;;;;;;;17.63;15.27;;;;;;;22.05;58.28;93940.16;4993517;28;20409;-79
2023/08/25 02:11:37;;;;;;;20.23;16.60;;;;;;;21.99;58.44;93940.94;4986428;28;20045;-79
2023/08/25 02:14:02;;;;;;;19.45;15.73;;;;;;;22.00;58.53;93947.91;4989945;28;20449;-79
2023/08/25 02:16:28;;;;;;;17.27;15.45;;;;;;;21.98;59.01;93953.72;4993120;28;20076;-78
2023/08/25 02:18:53;;;;;;;19.23;16.75;;;;;;;21.87;58.97;93934.72;4991038;28;20084;-78
2023/08/25 02:21:18;;;;;;;17.33;14.57;;;;;;;21.95;59.09;93957.16;4992445;28;20038;-78
2023/08/25 02:23:45;;;;;;;16.50;14.85;;;;;;;21.99;59.06;93960.69;4985617;28;20058;-76
2023/08/25 02:26:10;;;;;;;19.17;15.10;;;;;;;22.01;59.03;93960.28;4991728;28;20056;-79
2023/08/25 02:28:36;;;;;;;17.70;15.65;;;;;;;21.93;59.15;93970.31;4989354;28;20106;-77
2023/08/25 02:31:02;;;;;;;17.05;14.98;;;;;;;21.85;59.39;93963.34;4994023;28;20038;-79
2023/08/25 02:33:27;;;;;;;19.65;16.48;;;;;;;21.91;59.25;93967.19;4988394;28;22229;-77
2023/08/25 02:35:53;;;;;;;18.08;16.17;;;;;;;21.88;58.96;93962.56;4998409;28;20431;-78
2023/08/25 02:38:18;;;;;;;19.50;16.95;;;;;;;21.83;59.05;93954.81;4997084;28;20414;-78
2023/08/25 02:40:43;;;;;;;19.10;17.10;;;;;;;21.80;59.01;93950.91;4991983;28;20064;-78
2023/08/25 02:43:09;;;;;;;19.23;16.33;;;;;;;21.77;58.78;93950.91;4991386;28;20655;-78
2023/08/25 02:45:35;;;;;;;18.85;16.95;;;;;;;21.91;58.46;93956.38;4991652;28;20038;-76
2023/08/25 02:48:02;;;;;;;24.52;18.60;;;;;;;21.79;58.75;93956.72;4989485;28;20026;-80
2023/08/25 02:50:28;;;;;;;21.52;19.25;;;;;;;21.79;58.79;93959.44;4989697;28;22443;-78
2023/08/25 02:52:53;;;;;;;22.55;20.17;;;;;;;21.78;59.06;93969.47;4996478;28;20153;-79
2023/08/25 02:55:22;;;;;;;21.63;19.42;;;;;;;21.79;58.95;93970.25;4998548;28;20049;-77
2023/08/25 02:57:49;;;;;;;25.52;20.48;;;;;;;21.75;58.89;93967.53;4995898;28;21266;-79
2023/08/25 03:00:20;;;;;;;25.83;19.67;;;;;;;21.79;59.02;93978.38;4988132;28;20248;-79
2023/08/25 03:02:46;;;;;;;26.35;21.27;;;;;;;21.68;58.84;93969.44;4992215;28;20048;-79
2023/08/25 03:05:11;;;;;;;22.02;19.58;;;;;;;21.74;58.67;93974.09;4994402;28;20480;-79
2023/08/25 03:07:37;;;;;;;25.60;20.13;;;;;;;21.67;58.84;93971.34;4989348;28;20073;-79
2023/08/25 03:10:02;;;;;;;25.70;20.15;;;;;;;21.72;58.93;93975.63;4983445;28;20796;-79
2023/08/25 03:12:28;;;;;;;23.10;20.13;;;;;;;21.63;58.95;93975.19;4986978;28;20038;-78
2023/08/25 03:14:54;;;;;;;23.27;20.77;;;;;;;21.64;58.71;93984.88;4993047;28;20448;-78
2023/08/25 03:17:20;;;;;;;24.15;20.13;;;;;;;21.54;58.94;93982.84;4992323;28;20050;-77
2023/08/25 03:19:45;;;;;;;21.85;18.40;;;;;;;21.62;58.75;93998.00;4990920;28;20038;-78
2023/08/25 03:22:11;;;;;;;19.25;17.23;;;;;;;21.55;58.88;93987.16;4992304;28;20031;-78
2023/08/25 03:24:36;;;;;;;24.13;18.58;;;;;;;21.54;59.06;93990.97;4988421;28;20035;-78
2023/08/25 03:27:03;;;;;;;21.48;18.00;;;;;;;21.45;59.41;93994.81;4989743;28;20030;-79
2023/08/25 03:29:28;;;;;;;20.65;18.55;;;;;;;21.44;59.40;93993.25;4996232;28;21110;-78
2023/08/25 03:31:53;;;;;;;23.77;18.02;;;;;;;21.42;58.98;93979.31;4990885;28;20046;-79
2023/08/25 03:34:19;;;;;;;20.85;17.85;;;;;;;21.44;59.34;94000.59;4989288;28;20401;-79
2023/08/25 03:36:45;;;;;;;20.08;17.75;;;;;;;21.34;59.07;93982.34;4991916;28;20035;-78
2023/08/25 03:39:12;;;;;;;21.60;17.70;;;;;;;21.39;58.97;93984.69;4985429;28;20026;-78
2023/08/25 03:41:37;;;;;;;24.48;16.85;;;;;;;21.34;59.13;93988.53;4989486;28;20030;-78
2023/08/25 03:44:03;;;;;;;20.35;16.98;;;;;;;21.23;59.20;93982.28;4989189;28;20046;-79
2023/08/25 03:46:28;;;;;;;20.67;16.73;;;;;;;21.36;59.28;94002.44;4988680;28;20278;-78
2023/08/25 03:48:54;;;;;;;19.58;17.27;;;;;;;21.32;59.57;93996.25;5025027;28;20028;-78
2023/08/25 03:51:19;;;;;;;20.38;17.42;;;;;;;21.17;59.61;93972.19;5077953;28;20036;-78
2023/08/25 03:53:44;;;;;;;20.02;17.92;;;;;;;21.25;59.92;93990.03;5080375;28;20020;-78
2023/08/25 03:56:10;;;;;;;20.48;17.27;;;;;;;21.19;59.75;93992.28;5078379;28;20028;-79
2023/08/25 03:58:35;;;;;;;19.73;17.83;;;;;;;21.13;60.11;93993.00;5077440;28;20044;-79
2023/08/25 04:01:01;;;;;;;20.05;17.92;;;;;;;21.14;60.35;94003.47;5078271;28;20036;-78
2023/08/25 04:03:26;;;;;;;18.90;16.98;;;;;;;21.19;60.06;94005.81;5077520;28;20119;-79
2023/08/25 04:05:51;;;;;;;20.75;18.33;;;;;;;21.25;59.91;94014.38;5079761;28;20714;-78
2023/08/25 04:08:17;;;;;;;20.63;16.88;;;;;;;21.26;60.21;94008.59;5077292;28;20032;-78
2023/08/25 04:10:43;;;;;;;20.63;17.80;;;;;;;21.21;60.58;94006.22;5014530;28;20451;-78
2023/08/25 04:13:09;;;;;;;21.67;17.45;;;;;;;21.16;60.68;94001.16;5030521;28;20040;-77
2023/08/25 04:15:36;;;;;;;20.88;18.45;;;;;;;21.20;60.88;94010.09;5081390;28;20036;-77
2023/08/25 04:18:05;;;;;;;19.60;16.50;;;;;;;21.22;60.98;94010.47;5075623;28;20027;-79
2023/08/25 04:20:31;;;;;;;19.35;17.35;;;;;;;21.18;60.88;94012.38;5080775;28;20068;-78
2023/08/25 04:22:56;;;;;;;21.83;18.13;;;;;;;21.24;61.01;94008.19;5075174;28;20063;-77
2023/08/25 04:25:23;;;;;;;20.58;18.48;;;;;;;21.33;60.91;94005.13;5076681;28;20451;-78
2023/08/25 04:27:48;;;;;;;21.77;19.48;;;;;;;21.24;61.26;93994.66;5075268;28;20071;-77
2023/08/25 04:30:13;;;;;;;21.48;17.42;;;;;;;21.30;61.07;94003.19;5077178;28;20028;-78
2023/08/25 04:32:39;;;;;;;22.95;18.05;;;;;;;21.40;61.50;94014.09;5079112;28;20759;-79
2023/08/25 04:35:05;;;;;;;24.98;18.67;;;;;;;21.35;61.37;94005.56;5076741;28;20136;-76
2023/08/25 04:37:30;;;;;;;23.13;20.67;;;;;;;21.43;61.39;94024.16;5075333;28;20838;-78
2023/08/25 04:39:55;;;;;;;22.10;19.23;;;;;;;21.48;61.01;94024.94;5079407;28;20039;-79
2023/08/25 04:42:22;;;;;;;25.75;19.75;;;;;;;21.50;60.63;94019.94;5074026;28;20190;-79
2023/08/25 04:44:48;;;;;;;30.85;22.20;;;;;;;21.70;60.05;94026.69;5075762;28;20502;-78
2023/08/25 04:47:15;;;;;;;24.92;19.77;;;;;;;21.69;60.05;94027.81;5073699;28;20039;-78
2023/08/25 04:49:40;;;;;;;25.88;21.20;;;;;;;21.69;60.23;94035.94;5079975;28;20034;-79
2023/08/25 04:52:06;;;;;;;24.92;20.77;;;;;;;21.78;60.09;94033.69;5075720;28;20196;-78
2023/08/25 04:54:31;;;;;;;28.65;21.23;;;;;;;21.79;59.94;94036.00;5078002;28;20035;-79
2023/08/25 04:56:57;;;;;;;28.48;20.75;;;;;;;21.66;60.18;94009.63;5077355;28;20031;-77
2023/08/25 04:59:23;;;;;;;37.28;21.33;;;;;;;21.94;59.78;94046.91;5081480;28;20037;-78
2023/08/25 05:01:49;;;;;;;32.78;22.55;;;;;;;21.94;59.73;94053.09;5084305;28;20915;-76
2023/08/25 05:04:14;;;;;;;24.67;20.42;;;;;;;22.06;59.62;94055.47;5077909;28;20035;-78
2023/08/25 05:06:40;;;;;;;29.05;22.77;;;;;;;22.07;59.63;94050.84;5073488;28;20499;-78
2023/08/25 05:09:05;;;;;;;26.92;21.92;;;;;;;22.03;59.30;94037.28;5075901;28;20027;-77
2023/08/25 05:11:33;;;;;;;26.30;22.75;;;;;;;22.12;59.43;94056.66;5072955;28;20539;-77
2023/08/25 05:13:59;;;;;;;32.47;23.15;;;;;;;22.16;59.48;94057.47;5070537;28;20612;-78
2023/08/25 05:16:25;;;;;;;29.08;22.38;;;;;;;22.20;59.46;94055.53;5076621;28;20066;-77
2023/08/25 05:18:50;;;;;;;26.95;22.83;;;;;;;22.28;58.44;94051.75;5076271;28;20064;-76
2023/08/25 05:21:15;;;;;;;29.15;22.23;;;;;;;22.25;58.95;94060.63;5069491;28;20103;-77
2023/08/25 05:23:46;;;;;;;29.35;21.60;;;;;;;22.35;58.55;94069.16;5075762;28;20020;-78
2023/08/25 05:26:15;;;;;;;28.45;23.52;;;;;;;22.38;58.22;94065.72;5076609;28;20032;-77
2023/08/25 05:28:40;;;;;;;31.63;22.67;;;;;;;22.35;57.99;94061.03;5057197;28;20214;-79
2023/08/25 05:31:06;;;;;;;31.65;23.38;;;;;;;22.38;58.38;94061.06;5075520;28;20495;-78
2023/08/25 05:33:31;;;;;;;26.48;23.65;;;;;;;22.42;57.99;94061.84;5071713;28;20052;-79
2023/08/25 05:35:57;;;;;;;31.30;23.10;;;;;;;22.50;58.82;94063.44;5074394;28;20041;-79
2023/08/25 05:38:22;;;;;;;32.28;23.02;;;;;;;22.38;58.72;94052.16;5076853;28;20043;-78
2023/08/25 05:40:47;;;;;;;27.73;22.58;;;;;;;22.58;58.14;94058.81;5074724;28;20032;-78
2023/08/25 05:43:13;;;;;;;27.13;22.20;;;;;;;22.63;58.56;94055.72;5073668;28;20123;-78
2023/08/25 05:45:38;;;;;;;29.02;23.83;;;;;;;22.27;60.78;94058.31;5073912;28;20048;-78
2023/08/25 05:48:04;;;;;;;28.08;22.55;;;;;;;22.58;59.84;94059.59;5075429;28;20028;-78
2023/08/25 05:50:29;;;;;;;28.98;23.13;;;;;;;22.62;57.89;94044.13;5071194;28;20028;-78
2023/08/25 05:52:55;;;;;;;33.55;23.45;;;;;;;22.72;58.47;94045.28;5080294;28;20028;-79
2023/08/25 05:55:20;;;;;;;34.22;24.33;;;;;;;22.79;57.49;94053.44;5074915;28;20051;-76
2023/08/25 05:57:46;;;;;;;25.95;22.30;;;;;;;22.84;57.70;94050.34;5076117;28;20418;-78
2023/08/25 06:00:11;;;;;;;29.10;22.15;;;;;;;22.93;58.66;94053.47;5069311;28;20056;-77
2023/08/25 06:02:37;;;;;;;26.58;23.27;;;;;;;23.05;56.36;94061.25;5075559;28;20068;-78
2023/08/25 06:05:03;;;;;;;30.05;20.92;;;;;;;23.05;57.88;94044.19;4997823;28;20042;-78
2023/08/25 06:07:29;;;;;;;29.65;23.17;;;;;;;22.92;58.37;94038.38;4975268;28;20053;-76
2023/08/25 06:09:54;;;;;;;29.73;23.17;;;;;;;23.16;58.08;94039.56;4995853;28;20469;-77
2023/08/25 06:12:20;;;;;;;27.98;22.55;;;;;;;23.34;57.63;94042.25;5075299;28;20032;-75
2023/08/25 06:14:46;;;;;;;33.60;23.83;;;;;;;23.44;56.50;94039.56;5074101;28;20070;-77
2023/08/25 06:17:11;;;;;;;30.40;23.33;;;;;;;23.35;56.21;94035.69;5072471;28;20040;-78
2023/08/25 06:19:37;;;;;;;27.08;22.35;;;;;;;23.58;56.43;94038.78;5071059;28;20040;-76
2023/08/25 06:22:03;;;;;;;30.58;21.23;;;;;;;23.67;55.68;94031.00;5073850;28;20469;-77
2023/08/25 06:24:29;;;;;;;25.13;20.33;;;;;;;23.75;56.00;94026.34;5074923;28;20858;-78
2023/08/25 06:26:54;;;;;;;26.55;20.65;;;;;;;23.76;55.42;94015.09;5076779;28;20091;-79
2023/08/25 06:29:20;;;;;;;22.75;18.92;;;;;;;23.92;55.87;94029.03;5072898;28;20494;-78
2023/08/25 06:31:45;;;;;;;25.55;20.80;;;;;;;23.70;57.16;94013.97;5074580;28;20044;-78
2023/08/25 06:34:11;;;;;;;24.60;19.50;;;;;;;23.92;56.94;94031.72;5074827;28;20820;-78
2023/08/25 06:36:36;;;;;;;20.25;16.75;;;;;;;24.16;54.60;94030.13;5071686;28;20055;-78
2023/08/25 06:39:03;;;;;;;18.95;16.95;;;;;;;24.26;54.79;94028.53;5074444;28;20027;-77
2023/08/25 06:41:29;;;;;;;20.52;18.30;;;;;;;24.29;53.23;94025.81;5065712;28;20069;-76
2023/08/25 06:43:57;;;;;;;19.23;17.25;;;;;;;24.35;53.23;94026.94;5074740;28;20036;-77
2023/08/25 06:46:22;;;;;;;23.55;17.75;;;;;;;24.50;53.31;94035.03;5076138;28;20043;-78
2023/08/25 06:48:47;;;;;;;26.58;18.00;;;;;;;24.35;52.13;94018.78;5072783;28;20032;-79
2023/08/25 06:51:13;;;;;;;19.73;17.13;;;;;;;24.48;53.32;94038.16;5076496;28;20028;-77
2023/08/25 06:53:38;;;;;;;23.65;15.73;;;;;;;24.58;53.78;94040.06;5075854;28;20513;-78
2023/08/25 06:56:04;;;;;;;23.00;17.00;;;;;;;24.57;53.96;94033.06;5077891;28;20496;-77
2023/08/25 06:58:29;;;;;;;19.60;16.38;;;;;;;24.56;52.95;94020.63;5074417;28;20101;-77
2023/08/25 07:00:54;;;;;;;24.20;17.00;;;;;;;24.68;52.24;94027.56;5075889;28;20700;-77
2023/08/25 07:03:20;;;;;;;19.33;15.65;;;;;;;24.71;51.61;94038.44;5069871;28;20066;-78
2023/08/25 07:05:46;;;;;;;20.67;16.60;;;;;;;24.76;51.39;94038.03;5071789;28;20539;-78
2023/08/25 07:08:12;;;;;;;20.40;15.88;;;;;;;24.83;52.68;94039.94;5073163;28;20051;-77
2023/08/25 07:10:37;;;;;;;25.55;16.42;;;;;;;24.91;52.17;94037.94;5073889;28;20036;-78
2023/08/25 07:13:03;;;;;;;23.45;16.50;;;;;;;24.78;51.89;94016.63;5072931;28;20036;-78
2023/08/25 07:15:28;;;;;;;17.45;15.05;;;;;;;24.86;53.08;94030.97;5078814;28;20036;-76
2023/08/25 07:17:54;;;;;;;19.63;14.30;;;;;;;25.04;51.53;94037.06;5091946;27;20027;-78
2023/08/25 07:20:19;;;;;;;18.25;14.73;;;;;;;24.93;51.56;94030.16;5076539;28;20033;-78
2023/08/25 07:22:45;;;;;;;18.80;13.55;;;;;;;25.13;50.75;94036.59;5073981;28;20411;-77
2023/08/25 07:25:11;;;;;;;18.95;13.45;;;;;;;25.16;50.52;94046.72;5075661;28;20415;-77
2023/08/25 07:27:36;;;;;;;14.40;12.70;;;;;;;24.98;50.72;94024.31;5076282;28;20031;-77
2023/08/25 07:30:03;;;;;;;17.83;13.65;;;;;;;25.11;50.27;94041.69;5075073;28;20066;-77
2023/08/25 07:32:29;;;;;;;17.80;14.50;;;;;;;25.06;50.75;94031.22;5076979;28;20957;-78
2023/08/25 07:34:55;;;;;;;18.65;13.77;;;;;;;25.03;50.79;94034.75;5075301;28;20028;-77
2023/08/25 07:37:21;;;;;;;15.43;13.45;;;;;;;25.11;50.13;94058.78;5078136;28;20055;-78
2023/08/25 07:39:51;;;;;;;17.02;12.90;;;;;;;24.83;49.96;94018.94;5074727;28;20036;-78
2023/08/25 07:42:16;;;;;;;18.58;12.85;;;;;;;25.12;50.03;94052.19;5073258;28;20032;-77
2023/08/25 07:44:42;;;;;;;17.70;12.10;;;;;;;25.15;50.50;94053.31;5075369;28;20020;-78
2023/08/25 07:47:07;;;;;;;15.85;12.63;;;;;;;25.10;49.59;94057.25;5075378;28;20044;-78
2023/08/25 07:49:33;;;;;;;13.80;12.00;;;;;;;25.02;49.59;94057.69;5073699;28;20063;-78
2023/08/25 07:51:58;;;;;;;19.95;12.45;;;;;;;25.11;49.79;94055.28;5075178;28;20043;-79
2023/08/25 07:54:24;;;;;;;18.48;12.60;;;;;;;25.18;50.00;94055.22;5079299;27;20024;-78
2023/08/25 07:56:49;;;;;;;14.02;11.68;;;;;;;25.10;48.93;94048.31;5074393;28;20608;-77
2023/08/25 07:59:15;;;;;;;14.77;10.40;;;;;;;25.19;48.29;94046.66;5076599;28;20437;-77
2023/08/25 08:01:40;;;;;;;13.10;11.43;;;;;;;25.25;48.79;94055.19;5077604;28;20041;-77
2023/08/25 08:04:07;;;;;;;13.55;10.70;;;;;;;25.33;49.27;94064.09;5077467;28;20968;-77
2023/08/25 08:06:33;;;;;;;17.92;11.73;;;;;;;25.34;49.08;94055.53;5074185;28;20081;-77
2023/08/25 08:08:58;;;;;;;15.20;11.63;;;;;;;25.33;48.40;94053.97;5093845;27;20040;-78
2023/08/25 08:11:23;;;;;;;14.90;12.27;;;;;;;25.28;48.38;94057.09;5074380;28;20567;-77
2023/08/25 08:13:49;;;;;;;15.68;10.88;;;;;;;25.20;47.72;94055.63;5077627;28;20040;-77
2023/08/25 08:16:14;;;;;;;19.10;11.50;;;;;;;25.29;48.12;94055.94;5075288;28;20114;-78
2023/08/25 08:18:40;;;;;;;14.23;10.63;;;;;;;25.44;48.52;94059.34;5077440;28;20070;-78
2023/08/25 08:21:05;;;;;;;11.27;9.32;;;;;;;25.41;47.15;94047.31;5071661;28;20130;-77
2023/08/25 08:23:30;;;;;;;10.27;8.45;;;;;;;25.45;46.44;94047.28;5074047;28;20035;-77
2023/08/25 08:25:56;;;;;;;10.18;7.75;;;;;;;25.41;43.88;94041.88;5075584;28;20147;-79
2023/08/25 08:28:21;;;;;;;9.05;6.95;;;;;;;25.47;42.53;94045.69;5077197;28;20047;-78
2023/08/25 08:30:47;;;;;;;8.77;6.35;;;;;;;25.51;41.13;94046.47;5075852;28;20036;-78
2023/08/25 08:33:12;;;;;;;9.57;7.05;;;;;;;25.59;41.48;94037.03;5077952;27;20034;-78
2023/08/25 08:35:38;;;;;;;6.70;6.00;;;;;;;25.70;40.51;94032.28;5074169;28;20412;-77
2023/08/25 08:38:05;;;;;;;11.95;6.90;;;;;;;25.78;41.14;94032.97;5074589;28;20050;-78
2023/08/25 08:40:32;;;;;;;8.95;7.85;;;;;;;25.79;41.73;94033.75;5076098;28;20036;-77
2023/08/25 08:43:02;;;;;;;11.73;7.40;;;;;;;25.73;41.62;94035.34;5071916;28;20047;-78
2023/08/25 08:45:34;;;;;;;10.15;7.60;;;;;;;25.75;41.36;94030.28;5075246;28;20041;-75
2023/08/25 08:48:03;;;;;;;10.48;7.90;;;;;;;25.62;41.57;94036.22;5076508;28;20039;-77
2023/08/25 08:50:29;;;;;;;7.45;6.63;;;;;;;25.67;42.03;94032.28;4993948;28;20049;-77
2023/08/25 08:52:57;;;;;;;7.38;6.65;;;;;;;25.75;42.13;94030.28;4987471;28;20066;-78
2023/08/25 08:55:22;;;;;;;12.05;7.53;;;;;;;25.73;40.47;94021.72;5000137;28;20498;-77
2023/08/25 08:57:49;;;;;;;11.32;6.80;;;;;;;25.73;40.82;94013.56;4990610;28;20035;-76
2023/08/25 09:00:18;;;;;;;12.20;7.20;;;;;;;25.88;40.95;94014.97;4989596;28;20038;-78
2023/08/25 09:02:49;;;;;;;15.90;8.07;;;;;;;25.76;40.38;94001.88;4986064;28;20034;-78
2023/08/25 09:05:15;;;;;;;7.35;6.53;;;;;;;25.80;40.83;94014.28;4985611;28;20147;-77
2023/08/25 09:07:41;;;;;;;9.20;6.95;;;;;;;25.60;40.33;94016.81;4992314;28;20578;-78
2023/08/25 09:10:07;;;;;;;15.43;7.78;;;;;;;25.79;40.77;94006.50;4995252;28;20096;-78
2023/08/25 09:12:34;;;;;;;11.05;7.82;;;;;;;25.77;40.70;93998.72;4984376;28;20038;-77
2023/08/25 09:15:00;;;;;;;8.10;7.30;;;;;;;25.89;39.69;93995.53;4978872;28;20535;-78
2023/08/25 09:17:25;;;;;;;9.32;6.95;;;;;;;26.15;40.18;93993.28;4990932;28;20039;-77
2023/08/25 09:19:50;;;;;;;10.38;6.20;;;;;;;26.22;39.04;93993.19;4991694;28;20641;-78
2023/08/25 09:22:17;;;;;;;7.10;5.68;;;;;;;26.29;38.46;93999.34;4985977;28;20638;-77
2023/08/25 09:24:43;;;;;;;6.68;5.95;;;;;;;26.23;38.45;93983.84;4975729;28;20034;-77
2023/08/25 09:27:26;;;;;;;6.63;5.93;;;;;;;26.33;38.79;93983.69;4984664;28;20062;-77
2023/08/25 09:30:04;;;;;;;8.05;5.70;;;;;;;26.48;38.79;93990.53;4992439;28;20024;-77
2023/08/25 09:32:30;;;;;;;5.47;4.95;;;;;;;26.37;38.07;93992.59;4989855;28;20051;-76
2023/08/25 09:35:09;;;;;;;6.93;5.05;;;;;;;26.42;37.54;93992.16;4983963;28;20027;-77
2023/08/25 09:37:40;;;;;;;7.60;5.85;;;;;;;26.33;37.59;93986.44;4996605;28;20512;-77
2023/08/25 09:40:17;;;;;;;7.97;6.60;;;;;;;26.40;38.10;93977.38;4985976;28;20135;-77
2023/08/25 09:42:42;;;;;;;8.43;5.65;;;;;;;26.48;37.60;93982.38;4982445;28;20042;-76
2023/08/25 09:45:09;;;;;;;7.88;5.32;;;;;;;26.70;35.91;93971.13;4991646;28;21066;-75
2023/08/25 09:47:36;;;;;;;8.50;4.43;;;;;;;26.71;35.91;93978.91;4984861;28;20036;-78
2023/08/25 09:50:01;;;;;;;11.95;5.50;;;;;;;26.76;36.03;93970.28;4983037;28;20034;-77
2023/08/25 09:52:32;;;;;;;8.43;5.20;;;;;;;26.74;36.80;93958.97;4978569;28;20039;-77
2023/08/25 09:54:57;;;;;;;11.20;6.05;;;;;;;26.80;36.42;93973.72;4977184;28;20514;-76
2023/08/25 09:57:23;;;;;;;7.93;5.70;;;;;;;26.73;36.44;93967.59;4974165;28;20045;-77
2023/08/25 09:59:49;;;;;;;6.50;5.47;;;;;;;26.84;36.77;93957.28;4983366;28;20717;-77
2023/08/25 10:02:15;;;;;;;6.90;5.88;;;;;;;26.83;36.64;93953.81;4984304;28;20034;-78
2023/08/25 10:04:41;;;;;;;6.50;5.80;;;;;;;26.71;36.54;93953.59;4984885;28;20072;-77
2023/08/25 10:07:07;;;;;;;6.78;5.20;;;;;;;26.72;36.21;93957.88;4978041;28;20061;-77
2023/08/25 10:09:33;;;;;;;8.82;5.45;;;;;;;26.88;37.08;93956.06;5049403;28;20106;-76
2023/08/25 10:11:59;;;;;;;8.20;5.50;;;;;;;26.94;36.01;93951.66;4983724;28;20487;-76
2023/08/25 10:14:30;;;;;;;6.18;5.28;;;;;;;26.99;35.53;93951.19;4977188;28;20026;-78
2023/08/25 10:17:00;;;;;;;10.13;6.00;;;;;;;27.03;35.18;93937.53;4983178;28;20528;-77
2023/08/25 10:19:27;;;;;;;6.40;5.38;;;;;;;27.14;35.46;93935.38;4982458;28;20091;-77
2023/08/25 10:21:55;;;;;;;8.02;4.90;;;;;;;27.17;35.02;93940.03;4990063;28;20567;-78
2023/08/25 10:24:22;;;;;;;7.07;5.60;;;;;;;27.14;35.39;93932.66;4986059;28;20137;-79
2023/08/25 10:26:52;;;;;;;13.70;6.95;;;;;;;27.00;35.31;93924.69;4988698;28;20046;-79
2023/08/25 10:29:20;;;;;;;8.10;5.30;;;;;;;27.09;35.48;93935.09;4991638;28;20490;-80
2023/08/25 10:31:59;;;;;;;5.80;5.20;;;;;;;27.27;34.78;93919.97;4993615;28;20034;-79
2023/08/25 10:34:32;;;;;;;7.18;5.63;;;;;;;27.41;35.41;93924.41;4972477;28;20049;-79
2023/08/25 10:37:10;;;;;;;6.93;5.47;;;;;;;27.53;34.47;93931.19;4988577;28;20039;-79
2023/08/25 10:39:59;;;;;;;7.10;4.93;;;;;;;27.39;34.02;93918.56;4972179;28;20138;-78
2023/08/25 10:42:31;;;;;;;6.82;5.22;;;;;;;27.49;33.83;93930.50;4983098;28;20038;-79
2023/08/25 10:45:09;;;;;;;8.60;5.03;;;;;;;27.44;33.86;93914.59;4990040;28;20084;-78
2023/08/25 10:47:45;;;;;;;5.00;4.25;;;;;;;27.47;32.53;93909.06;4989067;28;20594;-78
2023/08/25 10:50:11;;;;;;;6.32;4.20;;;;;;;27.40;33.15;93899.03;4994312;28;20044;-79
2023/08/25 10:52:43;;;;;;;6.60;4.40;;;;;;;27.60;34.03;93918.22;5002365;28;20493;-79
2023/08/25 10:55:28;;;;;;;6.82;4.57;;;;;;;27.58;33.84;93908.88;5003801;28;21193;-77
2023/08/25 10:58:04;;;;;;;7.93;5.03;;;;;;;27.49;34.43;93909.41;5011424;27;20042;-79
2023/08/25 11:00:34;;;;;;;8.57;5.20;;;;;;;27.69;34.83;93914.91;4978992;28;20046;-80
2023/08/25 11:03:01;;;;;;;7.40;5.03;;;;;;;27.70;34.14;93911.00;4999056;28;20038;-80
2023/08/25 11:05:28;;;;;;;8.43;5.85;;;;;;;27.73;33.14;93915.63;4993704;28;20121;-77
2023/08/25 11:08:02;;;;;;;8.07;5.20;;;;;;;27.76;34.46;93912.84;4993261;28;20152;-79
2023/08/25 11:10:30;;;;;;;6.80;5.15;;;;;;;27.94;33.04;93907.00;4994783;28;20127;-79
2023/08/25 11:12:59;;;;;;;5.63;5.05;;;;;;;27.87;33.21;93909.88;4987638;28;20347;-76
2023/08/25 11:15:24;;;;;;;7.35;5.20;;;;;;;27.94;33.07;93904.28;4996952;28;20819;-81
2023/08/25 11:17:50;;;;;;;8.68;4.93;;;;;;;27.87;32.95;93904.41;4996874;28;20026;-79
2023/08/25 11:20:18;;;;;;;8.07;5.72;;;;;;;27.76;32.64;93880.03;4993419;28;20049;-80